India Forums Logo

Computers, Science, Technology

India Forums > Forum Index > Computers, Science, Technology
Place to talk about computers, the internet, and any science and tech related stuff.
...
<< | 5 | 6 | 7 | 8 | 9 | 10 | 11 | 12 | 13 | 14 | 15 | 16 | 17 | 18 | 19 | 20 | 21 | 22 | 23 | ... >>
TIDTopic SubjectStart DateLast Entry
1829562memory card help9/26/2011 6:35:32 AM9/26/2011 6:35:32 AM
1856656Photo Slideshow Director for Ipad ,ipnone9/28/2011 11:53:30 PM9/28/2011 11:53:30 PM
1857821Watch dvd on iphone, that's goood...9/29/2011 2:31:40 AM9/29/2011 2:31:40 AM
1857876watch a mess of avi on your Apple stuff, you can d9/29/2011 2:38:19 AM9/29/2011 2:38:19 AM
1903348iPhone games10/3/2011 10:16:14 PM10/3/2011 10:16:14 PM
1907564Let's talk iPhone - Are you excited?10/4/2011 9:24:09 AM10/21/2011 1:06:07 AM
1910492R.I.P Steve Jobs (apple founder)10/5/2011 6:04:42 PM9/17/2012 4:39:43 AM
1912979navya10/8/2011 5:43:38 AM10/8/2011 5:43:38 AM
1913535Famous school/college dropouts10/9/2011 1:22:31 AM10/9/2011 1:22:31 AM
1919065Treasured ways to rock your event10/14/2011 12:55:26 AM10/14/2011 12:55:26 AM
1920705Pic Cropper10/15/2011 11:34:13 AM10/15/2011 11:34:13 AM
192413710 Reasons Why Your Computer Runs Slow10/19/2011 6:33:57 AM11/5/2011 10:53:11 AM
1924139How to Secure Wireless Networks10/19/2011 6:36:11 AM10/19/2011 6:36:11 AM
1924141Top 5 Free Anti-Virus 201110/19/2011 6:38:29 AM10/19/2011 6:38:29 AM
1924885Flowers to shower a happy fiesta10/20/2011 1:36:21 AM10/20/2011 1:36:21 AM
1933119eRepublik - India needs YOU!10/28/2011 5:32:22 AM2/11/2012 1:45:43 PM
1934841Selling Bank logins,Fullz,Paypal,TrackS,cc,MORE10/30/2011 7:22:17 AM10/30/2011 7:22:17 AM
1936182Questions on remote desktop, active directory10/31/2011 5:21:28 PM10/31/2011 5:21:28 PM
1941974DVD Ripping/Editing Software for Mac OS X Lion11/4/2011 2:02:28 AM11/4/2011 6:17:18 AM
1942008Synclo11/4/2011 2:24:07 AM11/4/2011 2:24:07 AM
1942138Flip video converter for Mac OSX Lion was released11/4/2011 3:41:06 AM11/4/2011 3:41:06 AM
1942144How do I edit MPEG2/MPG into Final Cut Pro11/4/2011 3:44:24 AM11/4/2011 3:44:24 AM
1946085part time jobs11/5/2011 10:35:17 AM11/5/2011 10:35:17 AM
1946499Would you buy an iphone 4s now?11/5/2011 5:06:11 PM2/8/2012 1:08:57 AM
1947110Free Wordpress Themes and Free Joomla Templates11/6/2011 1:37:21 AM11/6/2011 1:37:21 AM
1948372How to burn AVI to DVD playable on a DVD player?11/6/2011 7:37:06 PM11/6/2011 7:37:06 PM
1948373How to burn iTunes movies to DVD effectively?11/6/2011 7:38:39 PM11/6/2011 7:38:39 PM
1951705How to copy blu-ray to blank bluray disc?11/8/2011 11:48:15 PM11/8/2011 11:48:15 PM
1951728Convert dvd to iPad format11/9/2011 12:16:41 AM11/9/2011 2:29:16 AM
1958105Products from the US?11/12/2011 11:27:31 PM11/12/2011 11:27:31 PM
1958882Where can I buy discounted DVD Ripper, Video Conve11/13/2011 7:56:34 AM11/13/2011 7:56:34 AM
1963256How to burn AVI to DVD playable on a DVD player?11/14/2011 10:46:48 PM11/14/2011 10:46:48 PM
1983059Anything to doo with Symbian, Windows & technology11/16/2011 9:37:21 PM11/16/2011 9:37:21 PM
2015170Hitman 5 : Absolution11/18/2011 4:42:18 PM11/18/2011 4:42:18 PM
2055911How many of you like playing PS3/PS2/Xbox/PC games11/21/2011 2:09:53 AM11/21/2011 2:09:53 AM
2073948Edit AVCHD from Canon Vixia Camcorder into iMovie11/22/2011 5:18:14 AM11/22/2011 5:18:14 AM
2073966How do I enjoy or play 720p videos on Acer Iconia11/22/2011 5:19:37 AM11/22/2011 5:19:37 AM
2163540Carry out DVD cinema on Samsung galaxy11/28/2011 1:48:48 AM11/28/2011 1:48:48 AM
2178364take up youtube clips on zune and / or pocket pers11/29/2011 12:23:14 AM11/29/2011 12:23:14 AM
2179600How to edit 3GP files into FCP or Final Cut Expres11/29/2011 2:12:43 AM11/29/2011 2:12:43 AM
2205358How to edit M4V video into iMovie or Final Cut Pro12/1/2011 2:58:07 AM12/1/2011 2:58:07 AM
2205473Editing AVCHD footages from Canon camcorder to Mac12/1/2011 3:13:08 AM12/1/2011 3:13:08 AM
2248236How to Create Stylish DVD from Your Mac?12/5/2011 2:20:17 AM12/5/2011 2:20:17 AM
2283572Is something wrong with my speakers??12/7/2011 7:52:18 AM12/7/2011 7:52:18 AM
2386292Nokia N8 or Samsung Galaxy S?12/14/2011 7:34:01 AM2/5/2012 11:48:00 PM
2400402Mac AVI to iMovie Converter, how to import AVI to12/15/2011 2:07:11 AM12/15/2011 2:07:11 AM
24156583D TV gaming12/16/2011 12:49:08 AM12/20/2011 7:15:30 AM
2432049Best indian Job searching website12/17/2011 12:05:02 AM12/17/2011 12:05:02 AM
2480512which technology in 3dtv should i go12/20/2011 7:19:06 AM12/20/2011 7:22:20 AM
2483612Accounts Premium Filesonic & Others 100% Working12/20/2011 11:36:28 AM1/12/2012 10:31:16 AM
2572707How to convert WMV to iMovie on Mac?12/25/2011 8:50:34 PM12/25/2011 8:50:34 PM
2609434help:dw helper is not converting videos12/27/2011 11:23:55 PM12/27/2011 11:23:55 PM
2611079IPS technology cause headaches12/28/2011 1:36:28 AM12/29/2011 3:38:04 AM
2634965Fullonsms client tool 3.0 - Release by arun12/29/2011 8:34:31 AM12/31/2011 9:12:56 AM
2634988Way2sms client tool 4.0 - Release by arun12/29/2011 8:36:14 AM2/5/2012 6:45:14 AM
2652197Mac DVD Ripper, how to convert DVD to MP4, MOV, MK12/31/2011 8:29:05 PM12/31/2011 8:29:05 PM
2652237WU Transfers Available ! WU Pro Transfer Software12/31/2011 10:12:39 PM12/31/2011 10:12:39 PM
2652240WU Transfers Available ! WU Pro Transfer Software12/31/2011 10:14:41 PM12/31/2011 10:14:41 PM
2652505help guys...1/1/2012 5:24:55 AM1/2/2012 4:32:37 AM
2653184ThinkDigit Magazine Ebook Full collection.1/2/2012 3:19:25 AM1/2/2012 4:49:21 AM
2655741Transfer Amazon Instant Videos to Nook Tablet1/4/2012 12:39:23 AM1/4/2012 12:39:23 AM
2655742Watch 1080p Blu-ray Movies on HDTV with Transforme1/4/2012 12:40:13 AM1/4/2012 12:40:13 AM
2655743Foxreal AVI to Playbook converter 20% discount1/4/2012 12:41:06 AM1/4/2012 12:41:06 AM
2655745Save 20% to Get Best Nook Tablet Blu-ray Ripper1/4/2012 12:41:38 AM1/4/2012 12:41:38 AM
265574620% discount Foxreal Blu-ray Video Converter1/4/2012 12:42:16 AM1/4/2012 12:42:16 AM
2658229Removing HDD from a Compaq Presario Notebook1/5/2012 4:53:58 PM1/5/2012 4:53:58 PM
2661774how to download or stream movies on Nook Tablet1/9/2012 1:59:46 AM1/9/2012 1:59:46 AM
2661813Play iTunes music or movies on Kindle Fire1/9/2012 2:47:18 AM1/9/2012 2:47:18 AM
2661825play or share Flip camcorder video on Mac Liono on1/9/2012 2:54:38 AM1/9/2012 2:54:38 AM
2663312reseller phone card1/10/2012 4:39:51 AM2/8/2012 12:26:49 AM
2665190Change MP4 to MP3 quickly1/11/2012 9:31:30 AM1/11/2012 9:31:30 AM
2666897How to copy and play movies to Kindle Fire?1/12/2012 4:30:00 AM1/12/2012 4:30:00 AM
2666949Play or enjoy 720p videos on Acer iconia Tab A5011/12/2012 5:07:17 AM1/12/2012 5:07:17 AM
2666971Import Canon Vixia camcorder to Mac iMovie1/12/2012 5:22:45 AM1/12/2012 5:22:45 AM
2668826My phone not work youtube1/12/2012 10:53:29 PM3/4/2012 9:11:27 PM
<< | 5 | 6 | 7 | 8 | 9 | 10 | 11 | 12 | 13 | 14 | 15 | 16 | 17 | 18 | 19 | 20 | 21 | 22 | 23 | ... >>